Terminal Aerodrome Forecast
Issued by NWS

Home | Current Version | Previous Version | Text Only | Print | Product List | Glossary On
Versions: 1 2 3 4 5 6 7 8 9 10 11 12 13 14 15 16 17 18 19 20 21
000
FTUS44 KLZK 071000 AAA
TAFPBF
TAF AMD
KPBF 071047Z 0711/0806 20006KT P6SM VCSH FEW020 OVC250
     FM071500 22008G15KT P6SM VCSH FEW030 BKN080 OVC250
     FM071700 23009G18KT P6SM VCTS SCT030CB BKN080 OVC250=

USA.gov is the U.S. government's official web portal to all federal, state and local government web resources and services.